sensor_id;sensor_type;location;lat;lon;timestamp;pressure;altitude;pressure_sealevel;temperature;humidity
34742;BME280;20968;42.696;23.360;2023-01-29T00:01:43;95364.25;;;1.47;79.40
34742;BME280;20968;42.696;23.360;2023-01-29T00:04:08;95371.91;;;1.52;78.84
34742;BME280;20968;42.696;23.360;2023-01-29T00:06:34;95370.31;;;1.54;79.12
34742;BME280;20968;42.696;23.360;2023-01-29T00:08:59;95376.78;;;1.60;79.34
34742;BME280;20968;42.696;23.360;2023-01-29T00:11:27;95373.81;;;1.54;79.04
34742;BME280;20968;42.696;23.360;2023-01-29T00:13:53;95369.13;;;1.55;79.46
34742;BME280;20968;42.696;23.360;2023-01-29T00:16:20;95376.59;;;1.51;79.12
34742;BME280;20968;42.696;23.360;2023-01-29T00:18:46;95384.72;;;1.51;78.71
34742;BME280;20968;42.696;23.360;2023-01-29T00:21:16;95372.34;;;1.50;78.89
34742;BME280;20968;42.696;23.360;2023-01-29T00:23:42;95387.63;;;1.60;79.11
34742;BME280;20968;42.696;23.360;2023-01-29T00:26:09;95374.91;;;1.57;80.01
34742;BME280;20968;42.696;23.360;2023-01-29T00:28:35;95385.22;;;1.65;78.86
34742;BME280;20968;42.696;23.360;2023-01-29T00:31:19;95386.13;;;1.59;78.61
34742;BME280;20968;42.696;23.360;2023-01-29T00:33:45;95386.13;;;1.59;79.55
34742;BME280;20968;42.696;23.360;2023-01-29T00:36:13;95382.13;;;1.44;79.56
34742;BME280;20968;42.696;23.360;2023-01-29T00:38:39;95391.66;;;1.52;79.76
34742;BME280;20968;42.696;23.360;2023-01-29T00:41:12;95385.41;;;1.55;79.36
34742;BME280;20968;42.696;23.360;2023-01-29T00:43:57;95382.34;;;1.53;79.32
34742;BME280;20968;42.696;23.360;2023-01-29T00:46:42;95387.06;;;1.49;79.96
34742;BME280;20968;42.696;23.360;2023-01-29T00:49:08;95391.72;;;1.49;80.29
34742;BME280;20968;42.696;23.360;2023-01-29T00:51:34;95386.22;;;1.52;79.88
34742;BME280;20968;42.696;23.360;2023-01-29T00:53:59;95378.63;;;1.44;79.94
34742;BME280;20968;42.696;23.360;2023-01-29T00:56:26;95386.94;;;1.56;79.73
34742;BME280;20968;42.696;23.360;2023-01-29T00:58:51;95394.72;;;1.54;79.58
34742;BME280;20968;42.696;23.360;2023-01-29T01:01:17;95382.13;;;1.44;79.81
34742;BME280;20968;42.696;23.360;2023-01-29T01:04:03;95383.50;;;1.52;80.01
34742;BME280;20968;42.696;23.360;2023-01-29T01:06:28;95389.22;;;1.57;80.03
34742;BME280;20968;42.696;23.360;2023-01-29T01:08:54;95371.63;;;1.46;79.95
34742;BME280;20968;42.696;23.360;2023-01-29T01:11:38;95377.34;;;1.52;79.43
34742;BME280;20968;42.696;23.360;2023-01-29T01:14:06;95376.22;;;1.49;79.33
34742;BME280;20968;42.696;23.360;2023-01-29T01:16:32;95374.00;;;1.44;79.23
34742;BME280;20968;42.696;23.360;2023-01-29T01:18:58;95360.84;;;1.43;79.03
34742;BME280;20968;42.696;23.360;2023-01-29T01:21:23;95366.97;;;1.47;79.73
34742;BME280;20968;42.696;23.360;2023-01-29T01:23:48;95358.97;;;1.40;79.76
34742;BME280;20968;42.696;23.360;2023-01-29T01:26:16;95366.19;;;1.46;80.08
34742;BME280;20968;42.696;23.360;2023-01-29T01:28:42;95359.22;;;1.45;79.48
34742;BME280;20968;42.696;23.360;2023-01-29T01:31:11;95373.03;;;1.54;79.76
34742;BME280;20968;42.696;23.360;2023-01-29T01:33:37;95374.50;;;1.58;79.90
34742;BME280;20968;42.696;23.360;2023-01-29T01:36:03;95372.34;;;1.50;79.55
34742;BME280;20968;42.696;23.360;2023-01-29T01:38:29;95360.97;;;1.36;79.45
34742;BME280;20968;42.696;23.360;2023-01-29T01:40:54;95374.16;;;1.34;80.27
34742;BME280;20968;42.696;23.360;2023-01-29T01:43:20;95370.94;;;1.42;80.17
34742;BME280;20968;42.696;23.360;2023-01-29T01:45:48;95364.09;;;1.34;80.69
34742;BME280;20968;42.696;23.360;2023-01-29T01:48:25;95374.00;;;1.44;80.15
34742;BME280;20968;42.696;23.360;2023-01-29T01:51:11;95385.13;;;1.50;80.52
34742;BME280;20968;42.696;23.360;2023-01-29T01:53:48;95378.50;;;1.51;80.32
34742;BME280;20968;42.696;23.360;2023-01-29T01:56:18;95386.94;;;1.56;80.39
34742;BME280;20968;42.696;23.360;2023-01-29T01:58:53;95385.22;;;1.65;80.28
34742;BME280;20968;42.696;23.360;2023-01-29T02:01:22;95385.16;;;1.69;80.62
34742;BME280;20968;42.696;23.360;2023-01-29T02:04:03;95401.03;;;1.70;80.29
34742;BME280;20968;42.696;23.360;2023-01-29T02:06:50;95384.22;;;1.56;80.46
34742;BME280;20968;42.696;23.360;2023-01-29T02:09:43;95391.50;;;1.62;80.31
34742;BME280;20968;42.696;23.360;2023-01-29T02:12:12;95389.81;;;1.68;80.75
34742;BME280;20968;42.696;23.360;2023-01-29T02:14:47;95382.38;;;1.72;80.39
34742;BME280;20968;42.696;23.360;2023-01-29T02:17:15;95385.28;;;1.81;79.55
34742;BME280;20968;42.696;23.360;2023-01-29T02:20:02;95399.28;;;1.80;80.30
34742;BME280;20968;42.696;23.360;2023-01-29T02:30:35;95401.28;;;1.76;80.53
34742;BME280;20968;42.696;23.360;2023-01-29T02:41:59;95407.28;;;1.67;81.11
34742;BME280;20968;42.696;23.360;2023-01-29T02:44:29;95398.41;;;1.63;81.20
34742;BME280;20968;42.696;23.360;2023-01-29T02:47:21;95411.59;;;1.65;80.76
34742;BME280;20968;42.696;23.360;2023-01-29T02:50:32;95404.28;;;1.62;81.25
34742;BME280;20968;42.696;23.360;2023-01-29T02:56:12;95413.25;;;1.59;81.59
34742;BME280;20968;42.696;23.360;2023-01-29T02:59:21;95403.81;;;1.67;81.32
34742;BME280;20968;42.696;23.360;2023-01-29T03:02:03;95410.59;;;1.75;81.30
34742;BME280;20968;42.696;23.360;2023-01-29T03:04:35;95404.44;;;1.74;81.59
34742;BME280;20968;42.696;23.360;2023-01-29T03:07:06;95407.88;;;1.75;81.03
34742;BME280;20968;42.696;23.360;2023-01-29T03:09:47;95407.28;;;1.67;81.03
34742;BME280;20968;42.696;23.360;2023-01-29T03:12:21;95411.09;;;1.70;80.67
34742;BME280;20968;42.696;23.360;2023-01-29T03:15:12;95415.22;;;1.78;81.27
34742;BME280;20968;42.696;23.360;2023-01-29T03:17:46;95403.09;;;1.63;80.53
34742;BME280;20968;42.696;23.360;2023-01-29T03:20:18;95402.78;;;1.57;80.84
34742;BME280;20968;42.696;23.360;2023-01-29T03:22:52;95408.66;;;1.56;81.22
34742;BME280;20968;42.696;23.360;2023-01-29T03:25:23;95411.06;;;1.51;80.95
34742;BME280;20968;42.696;23.360;2023-01-29T03:28:11;95414.25;;;1.46;81.95
34742;BME280;20968;42.696;23.360;2023-01-29T03:31:02;95417.72;;;1.46;81.92
34742;BME280;20968;42.696;23.360;2023-01-29T03:33:50;95419.75;;;1.42;81.87
34742;BME280;20968;42.696;23.360;2023-01-29T03:36:23;95425.53;;;1.44;81.63
34742;BME280;20968;42.696;23.360;2023-01-29T03:39:06;95425.09;;;1.46;81.77
34742;BME280;20968;42.696;23.360;2023-01-29T03:47:21;95412.53;;;1.55;81.50
34742;BME280;20968;42.696;23.360;2023-01-29T04:00:26;95417.22;;;1.54;81.47
34742;BME280;20968;42.696;23.360;2023-01-29T04:03:05;95416.28;;;1.61;81.75
34742;BME280;20968;42.696;23.360;2023-01-29T04:06:28;95407.47;;;1.57;81.89
34742;BME280;20968;42.696;23.360;2023-01-29T04:08:54;95433.53;;;1.51;81.33
34742;BME280;20968;42.696;23.360;2023-01-29T04:11:25;95430.78;;;1.54;81.83
34742;BME280;20968;42.696;23.360;2023-01-29T04:13:51;95434.16;;;1.58;82.02
34742;BME280;20968;42.696;23.360;2023-01-29T04:16:26;95428.13;;;1.51;81.82
34742;BME280;20968;42.696;23.360;2023-01-29T04:18:53;95422.34;;;1.49;81.99
34742;BME280;20968;42.696;23.360;2023-01-29T04:21:20;95441.94;;;1.56;81.82
34742;BME280;20968;42.696;23.360;2023-01-29T04:23:46;95434.22;;;1.55;81.56
34742;BME280;20968;42.696;23.360;2023-01-29T04:29:08;95428.28;;;1.41;82.14
34742;BME280;20968;42.696;23.360;2023-01-29T04:31:57;95432.06;;;1.47;82.41
34742;BME280;20968;42.696;23.360;2023-01-29T04:37:25;95438.31;;;1.44;82.37
34742;BME280;20968;42.696;23.360;2023-01-29T04:40:00;95443.19;;;1.52;81.89
34742;BME280;20968;42.696;23.360;2023-01-29T04:42:48;95445.31;;;1.64;81.42
34742;BME280;20968;42.696;23.360;2023-01-29T04:48:21;95444.25;;;1.58;81.01
34742;BME280;20968;42.696;23.360;2023-01-29T04:53:42;95440.38;;;1.59;80.93
34742;BME280;20968;42.696;23.360;2023-01-29T04:59:07;95442.72;;;1.57;80.55
34742;BME280;20968;42.696;23.360;2023-01-29T05:01:36;95444.72;;;1.53;80.29
34742;BME280;20968;42.696;23.360;2023-01-29T05:04:07;95454.34;;;1.57;80.71
34742;BME280;20968;42.696;23.360;2023-01-29T05:06:34;95451.00;;;1.50;81.56
34742;BME280;20968;42.696;23.360;2023-01-29T05:09:02;95442.38;;;1.55;81.51
34742;BME280;20968;42.696;23.360;2023-01-29T05:11:30;95445.75;;;1.62;81.29
34742;BME280;20968;42.696;23.360;2023-01-29T05:14:01;95435.03;;;1.52;80.71
34742;BME280;20968;42.696;23.360;2023-01-29T05:16:31;95464.19;;;1.71;80.78
34742;BME280;20968;42.696;23.360;2023-01-29T05:19:10;95447.38;;;1.56;80.80
34742;BME280;20968;42.696;23.360;2023-01-29T05:21:38;95446.56;;;1.59;80.70
34742;BME280;20968;42.696;23.360;2023-01-29T05:24:19;95461.97;;;1.66;80.82
34742;BME280;20968;42.696;23.360;2023-01-29T05:26:48;95438.19;;;1.51;80.80
34742;BME280;20968;42.696;23.360;2023-01-29T05:29:32;95464.88;;;1.75;80.89
34742;BME280;20968;42.696;23.360;2023-01-29T05:31:59;95463.44;;;1.70;80.24
34742;BME280;20968;42.696;23.360;2023-01-29T05:34:24;95463.06;;;1.68;79.92
34742;BME280;20968;42.696;23.360;2023-01-29T05:36:50;95472.69;;;1.73;80.22
34742;BME280;20968;42.696;23.360;2023-01-29T05:39:16;95471.16;;;1.72;80.36
34742;BME280;20968;42.696;23.360;2023-01-29T05:41:42;95465.84;;;1.65;80.03
34742;BME280;20968;42.696;23.360;2023-01-29T05:44:27;95467.38;;;1.66;80.34
34742;BME280;20968;42.696;23.360;2023-01-29T05:46:53;95466.59;;;1.65;79.70
34742;BME280;20968;42.696;23.360;2023-01-29T05:49:18;95462.94;;;1.52;81.04
34742;BME280;20968;42.696;23.360;2023-01-29T05:51:45;95479.47;;;1.61;80.88
34742;BME280;20968;42.696;23.360;2023-01-29T05:54:11;95466.78;;;1.55;80.57
34742;BME280;20968;42.696;23.360;2023-01-29T05:56:38;95473.19;;;1.64;80.77
34742;BME280;20968;42.696;23.360;2023-01-29T05:59:10;95479.00;;;1.66;80.65
34742;BME280;20968;42.696;23.360;2023-01-29T06:01:35;95484.78;;;1.68;80.68
34742;BME280;20968;42.696;23.360;2023-01-29T06:04:01;95489.09;;;1.66;80.76
34742;BME280;20968;42.696;23.360;2023-01-29T06:06:27;95472.56;;;1.57;80.86
34742;BME280;20968;42.696;23.360;2023-01-29T06:08:52;95500.63;;;1.70;80.97
34742;BME280;20968;42.696;23.360;2023-01-29T06:11:17;95482.63;;;1.56;81.35
34742;BME280;20968;42.696;23.360;2023-01-29T06:13:44;95479.88;;;1.60;81.30
34742;BME280;20968;42.696;23.360;2023-01-29T06:16:12;95492.50;;;1.70;81.85
34742;BME280;20968;42.696;23.360;2023-01-29T06:18:38;95499.63;;;1.83;81.65
34742;BME280;20968;42.696;23.360;2023-01-29T06:21:08;95509.69;;;1.83;81.12
34742;BME280;20968;42.696;23.360;2023-01-29T06:23:34;95501.63;;;1.79;81.22
34742;BME280;20968;42.696;23.360;2023-01-29T06:26:05;95507.53;;;1.74;81.12
34742;BME280;20968;42.696;23.360;2023-01-29T06:28:31;95512.97;;;1.74;81.36
34742;BME280;20968;42.696;23.360;2023-01-29T06:31:02;95518.50;;;1.67;82.06
34742;BME280;20968;42.696;23.360;2023-01-29T06:33:29;95523.06;;;1.74;81.72
34742;BME280;20968;42.696;23.360;2023-01-29T06:35:56;95513.94;;;1.61;81.84
34742;BME280;20968;42.696;23.360;2023-01-29T06:38:22;95523.25;;;1.60;82.35
34742;BME280;20968;42.696;23.360;2023-01-29T06:40:48;95512.31;;;1.67;82.26
34742;BME280;20968;42.696;23.360;2023-01-29T06:43:13;95522.28;;;1.73;81.85
34742;BME280;20968;42.696;23.360;2023-01-29T06:45:54;95526.59;;;1.71;81.89
34742;BME280;20968;42.696;23.360;2023-01-29T06:48:21;95525.28;;;1.56;82.33
34742;BME280;20968;42.696;23.360;2023-01-29T06:50:47;95514.69;;;1.65;82.30
34742;BME280;20968;42.696;23.360;2023-01-29T06:53:20;95518.16;;;1.65;81.89
34742;BME280;20968;42.696;23.360;2023-01-29T06:55:52;95526.09;;;1.76;81.83
34742;BME280;20968;42.696;23.360;2023-01-29T06:58:20;95541.41;;;1.89;81.77
34742;BME280;20968;42.696;23.360;2023-01-29T07:00:46;95529.13;;;1.81;81.63
34742;BME280;20968;42.696;23.360;2023-01-29T07:03:11;95531.47;;;1.79;81.61
34742;BME280;20968;42.696;23.360;2023-01-29T07:05:37;95551.00;;;1.94;81.56
34742;BME280;20968;42.696;23.360;2023-01-29T07:08:04;95549.91;;;1.91;81.08
34742;BME280;20968;42.696;23.360;2023-01-29T07:10:32;95539.91;;;1.85;81.00
34742;BME280;20968;42.696;23.360;2023-01-29T07:12:58;95541.94;;;1.81;81.40
34742;BME280;20968;42.696;23.360;2023-01-29T07:15:24;95556.94;;;1.89;81.21
34742;BME280;20968;42.696;23.360;2023-01-29T07:18:00;95551.63;;;1.82;81.33
34742;BME280;20968;42.696;23.360;2023-01-29T07:20:29;95549.00;;;1.75;80.95
34742;BME280;20968;42.696;23.360;2023-01-29T07:22:56;95560.50;;;1.82;81.44
34742;BME280;20968;42.696;23.360;2023-01-29T07:25:23;95559.75;;;1.82;80.92
34742;BME280;20968;42.696;23.360;2023-01-29T07:27:49;95553.84;;;1.87;80.67
34742;BME280;20968;42.696;23.360;2023-01-29T07:30:15;95557.13;;;1.98;80.10
34742;BME280;20968;42.696;23.360;2023-01-29T07:32:41;95562.03;;;2.06;80.00
34742;BME280;20968;42.696;23.360;2023-01-29T07:35:12;95555.56;;;2.00;80.11
34742;BME280;20968;42.696;23.360;2023-01-29T07:37:40;95577.03;;;2.14;79.57
34742;BME280;20968;42.696;23.360;2023-01-29T07:40:06;95559.69;;;2.08;79.99
34742;BME280;20968;42.696;23.360;2023-01-29T07:42:36;95565.25;;;2.01;79.75
34742;BME280;20968;42.696;23.360;2023-01-29T07:45:04;95561.13;;;2.13;80.13
34742;BME280;20968;42.696;23.360;2023-01-29T07:47:29;95576.06;;;2.24;79.71
34742;BME280;20968;42.696;23.360;2023-01-29T07:49:55;95565.06;;;2.12;79.46
34742;BME280;20968;42.696;23.360;2023-01-29T07:52:23;95567.41;;;2.10;79.89
34742;BME280;20968;42.696;23.360;2023-01-29T07:54:49;95562.94;;;2.00;80.31
34742;BME280;20968;42.696;23.360;2023-01-29T07:57:14;95577.69;;;1.99;80.83
34742;BME280;20968;42.696;23.360;2023-01-29T07:59:40;95571.31;;;1.86;80.62
34742;BME280;20968;42.696;23.360;2023-01-29T08:05:06;95587.84;;;1.95;80.81
34742;BME280;20968;42.696;23.360;2023-01-29T08:07:32;95566.53;;;1.93;81.08
34742;BME280;20968;42.696;23.360;2023-01-29T08:12:33;95591.97;;;2.26;80.44
34742;BME280;20968;42.696;23.360;2023-01-29T08:15:01;95586.66;;;2.19;79.61
34742;BME280;20968;42.696;23.360;2023-01-29T08:17:28;95584.34;;;2.17;79.22
34742;BME280;20968;42.696;23.360;2023-01-29T08:19:54;95581.91;;;2.23;78.84
34742;BME280;20968;42.696;23.360;2023-01-29T08:22:21;95595.78;;;2.28;78.70
34742;BME280;20968;42.696;23.360;2023-01-29T08:24:47;95592.34;;;2.28;78.66
34742;BME280;20968;42.696;23.360;2023-01-29T08:27:13;95591.84;;;2.10;78.61
34742;BME280;20968;42.696;23.360;2023-01-29T08:29:40;95598.41;;;2.12;78.37
34742;BME280;20968;42.696;23.360;2023-01-29T08:32:08;95587.97;;;2.11;78.20
34742;BME280;20968;42.696;23.360;2023-01-29T08:34:35;95600.19;;;2.22;78.63
34742;BME280;20968;42.696;23.360;2023-01-29T08:37:00;95605.19;;;2.24;77.79
34742;BME280;20968;42.696;23.360;2023-01-29T08:39:26;95598.16;;;2.26;78.22
34742;BME280;20968;42.696;23.360;2023-01-29T08:41:51;95606.72;;;2.25;78.04
34742;BME280;20968;42.696;23.360;2023-01-29T08:44:20;95614.38;;;2.29;77.43
34742;BME280;20968;42.696;23.360;2023-01-29T08:46:46;95608.13;;;2.32;77.45
34742;BME280;20968;42.696;23.360;2023-01-29T08:49:12;95620.47;;;2.37;77.78
34742;BME280;20968;42.696;23.360;2023-01-29T08:51:39;95614.63;;;2.16;77.07
34742;BME280;20968;42.696;23.360;2023-01-29T08:54:05;95610.69;;;2.20;77.59
34742;BME280;20968;42.696;23.360;2023-01-29T08:56:31;95619.94;;;2.23;77.14
34742;BME280;20968;42.696;23.360;2023-01-29T08:58:58;95622.19;;;2.28;76.90
34742;BME280;20968;42.696;23.360;2023-01-29T09:01:25;95628.03;;;2.26;77.03
34742;BME280;20968;42.696;23.360;2023-01-29T09:03:51;95628.50;;;2.21;77.15
34742;BME280;20968;42.696;23.360;2023-01-29T09:06:18;95628.63;;;2.14;77.40
34742;BME280;20968;42.696;23.360;2023-01-29T09:08:44;95625.00;;;2.21;77.13
34742;BME280;20968;42.696;23.360;2023-01-29T09:11:09;95634.13;;;2.33;76.80
34742;BME280;20968;42.696;23.360;2023-01-29T09:13:35;95626.44;;;2.28;76.47
34742;BME280;20968;42.696;23.360;2023-01-29T09:16:01;95629.75;;;2.39;76.89
34742;BME280;20968;42.696;23.360;2023-01-29T09:18:28;95628.94;;;2.42;76.91
34742;BME280;20968;42.696;23.360;2023-01-29T09:20:53;95619.13;;;2.48;76.82
34742;BME280;20968;42.696;23.360;2023-01-29T09:23:19;95623.13;;;2.40;76.36
34742;BME280;20968;42.696;23.360;2023-01-29T09:25:45;95628.19;;;2.38;75.48
34742;BME280;20968;42.696;23.360;2023-01-29T09:28:12;95624.44;;;2.32;76.03
34742;BME280;20968;42.696;23.360;2023-01-29T09:30:45;95627.84;;;2.36;76.67
34742;BME280;20968;42.696;23.360;2023-01-29T09:33:10;95625.31;;;2.49;76.18
34742;BME280;20968;42.696;23.360;2023-01-29T09:35:39;95619.75;;;2.33;75.99
34742;BME280;20968;42.696;23.360;2023-01-29T09:38:06;95622.78;;;2.38;75.82
34742;BME280;20968;42.696;23.360;2023-01-29T09:43:48;95616.91;;;2.40;76.05
34742;BME280;20968;42.696;23.360;2023-01-29T09:46:32;95610.25;;;2.44;76.18
34742;BME280;20968;42.696;23.360;2023-01-29T09:49:05;95602.44;;;2.46;76.06
34742;BME280;20968;42.696;23.360;2023-01-29T09:51:38;95613.25;;;2.50;75.38
34742;BME280;20968;42.696;23.360;2023-01-29T09:54:23;95608.19;;;2.52;75.10
34742;BME280;20968;42.696;23.360;2023-01-29T09:56:54;95600.97;;;2.42;76.02
34742;BME280;20968;42.696;23.360;2023-01-29T09:59:26;95615.78;;;2.60;75.38
34742;BME280;20968;42.696;23.360;2023-01-29T10:05:20;95608.88;;;2.56;75.19
34742;BME280;20968;42.696;23.360;2023-01-29T10:22:42;95593.69;;;2.58;75.28
34742;BME280;20968;42.696;23.360;2023-01-29T10:25:20;95600.38;;;2.54;75.18
34742;BME280;20968;42.696;23.360;2023-01-29T10:27:52;95590.63;;;2.56;75.85
34742;BME280;20968;42.696;23.360;2023-01-29T10:32:50;95584.69;;;2.42;75.66
34742;BME280;20968;42.696;23.360;2023-01-29T10:35:22;95581.47;;;2.28;75.56
34742;BME280;20968;42.696;23.360;2023-01-29T10:37:51;95571.78;;;2.27;75.65
34742;BME280;20968;42.696;23.360;2023-01-29T10:40:26;95563.41;;;2.18;76.18
34742;BME280;20968;42.696;23.360;2023-01-29T10:43:11;95578.75;;;2.28;76.14
34742;BME280;20968;42.696;23.360;2023-01-29T10:45:51;95584.50;;;2.29;75.72
34742;BME280;20968;42.696;23.360;2023-01-29T10:48:59;95575.53;;;2.32;76.27
34742;BME280;20968;42.696;23.360;2023-01-29T10:54:56;95566.00;;;2.25;76.78
34742;BME280;20968;42.696;23.360;2023-01-29T11:00:24;95557.97;;;2.18;77.41
34742;BME280;20968;42.696;23.360;2023-01-29T11:02:50;95558.78;;;2.15;77.12
34742;BME280;20968;42.696;23.360;2023-01-29T11:05:25;95562.84;;;2.26;77.08
34742;BME280;20968;42.696;23.360;2023-01-29T11:08:07;95560.72;;;2.37;76.89
34742;BME280;20968;42.696;23.360;2023-01-29T11:11:06;95555.91;;;2.44;76.59
34742;BME280;20968;42.696;23.360;2023-01-29T11:13:54;95548.25;;;2.39;75.73
34742;BME280;20968;42.696;23.360;2023-01-29T11:16:22;95550.63;;;2.57;76.29
34742;BME280;20968;42.696;23.360;2023-01-29T11:18:59;95533.16;;;2.58;75.80
34742;BME280;20968;42.696;23.360;2023-01-29T11:21:27;95554.81;;;2.61;75.55
34742;BME280;20968;42.696;23.360;2023-01-29T11:24:06;95556.78;;;2.61;75.90
34742;BME280;20968;42.696;23.360;2023-01-29T11:26:34;95548.94;;;2.63;76.48
34742;BME280;20968;42.696;23.360;2023-01-29T11:29:02;95542.97;;;2.71;75.97
34742;BME280;20968;42.696;23.360;2023-01-29T11:31:35;95543.53;;;2.82;76.11
34742;BME280;20968;42.696;23.360;2023-01-29T11:34:12;95535.22;;;3.76;83.81
34742;BME280;20968;42.696;23.360;2023-01-29T11:36:41;95526.94;;;3.63;74.20
34742;BME280;20968;42.696;23.360;2023-01-29T11:39:26;95532.19;;;3.38;73.01
34742;BME280;20968;42.696;23.360;2023-01-29T11:41:57;95526.41;;;3.20;73.39
34742;BME280;20968;42.696;23.360;2023-01-29T11:44:34;95523.41;;;3.15;73.72
34742;BME280;20968;42.696;23.360;2023-01-29T11:52:35;95500.81;;;2.83;74.68
34742;BME280;20968;42.696;23.360;2023-01-29T11:55:14;95511.59;;;2.86;74.79
34742;BME280;20968;42.696;23.360;2023-01-29T12:00:39;95505.38;;;2.86;75.24
34742;BME280;20968;42.696;23.360;2023-01-29T12:03:33;95511.00;;;3.14;74.95
34742;BME280;20968;42.696;23.360;2023-01-29T12:06:07;95509.44;;;3.13;74.23
34742;BME280;20968;42.696;23.360;2023-01-29T12:08:38;95511.16;;;3.07;74.22
34742;BME280;20968;42.696;23.360;2023-01-29T12:11:32;95514.63;;;3.07;73.82
34742;BME280;20968;42.696;23.360;2023-01-29T12:13:59;95513.44;;;3.08;73.94
34742;BME280;20968;42.696;23.360;2023-01-29T12:22:19;95511.44;;;2.93;74.63
34742;BME280;20968;42.696;23.360;2023-01-29T12:25:21;95523.16;;;2.90;74.60
34742;BME280;20968;42.696;23.360;2023-01-29T12:28:05;95509.72;;;2.83;74.35
34742;BME280;20968;42.696;23.360;2023-01-29T12:31:10;95509.38;;;2.81;74.34
34742;BME280;20968;42.696;23.360;2023-01-29T12:34:32;95506.16;;;2.86;74.84
34742;BME280;20968;42.696;23.360;2023-01-29T12:36:46;95498.69;;;2.90;73.95
34742;BME280;20968;42.696;23.360;2023-01-29T12:39:18;95519.66;;;3.09;73.84
34742;BME280;20968;42.696;23.360;2023-01-29T12:41:49;95505.91;;;3.16;73.81
34742;BME280;20968;42.696;23.360;2023-01-29T12:46:59;95515.91;;;3.03;72.86
34742;BME280;20968;42.696;23.360;2023-01-29T12:49:31;95503.50;;;3.02;73.53
34742;BME280;20968;42.696;23.360;2023-01-29T12:52:40;95520.50;;;3.06;73.56
34742;BME280;20968;42.696;23.360;2023-01-29T12:58:31;95504.69;;;3.01;73.39
34742;BME280;20968;42.696;23.360;2023-01-29T13:01:14;95518.56;;;3.07;73.40
34742;BME280;20968;42.696;23.360;2023-01-29T13:06:26;95501.84;;;2.89;73.54
34742;BME280;20968;42.696;23.360;2023-01-29T13:09:07;95501.25;;;2.97;73.58
34742;BME280;20968;42.696;23.360;2023-01-29T13:11:40;95509.00;;;2.99;74.04
34742;BME280;20968;42.696;23.360;2023-01-29T13:14:35;95514.38;;;3.02;73.28
34742;BME280;20968;42.696;23.360;2023-01-29T13:17:11;95509.00;;;2.99;73.40
34742;BME280;20968;42.696;23.360;2023-01-29T13:19:45;95503.50;;;3.02;73.06
34742;BME280;20968;42.696;23.360;2023-01-29T13:22:27;95509.81;;;3.15;73.48
34742;BME280;20968;42.696;23.360;2023-01-29T13:24:53;95518.03;;;3.11;72.60
34742;BME280;20968;42.696;23.360;2023-01-29T13:27:31;95514.81;;;3.16;72.52
34742;BME280;20968;42.696;23.360;2023-01-29T13:29:58;95507.25;;;3.08;72.79
34742;BME280;20968;42.696;23.360;2023-01-29T13:32:29;95511.16;;;3.07;72.30
34742;BME280;20968;42.696;23.360;2023-01-29T13:35:10;95519.09;;;2.98;72.50
34742;BME280;20968;42.696;23.360;2023-01-29T13:37:41;95524.34;;;2.89;72.98
34742;BME280;20968;42.696;23.360;2023-01-29T13:40:23;95524.78;;;2.88;73.02
34742;BME280;20968;42.696;23.360;2023-01-29T13:42:50;95523.22;;;2.87;72.59
34742;BME280;20968;42.696;23.360;2023-01-29T13:45:42;95527.56;;;2.84;72.60
34742;BME280;20968;42.696;23.360;2023-01-29T13:48:24;95539.00;;;2.76;72.86
34742;BME280;20968;42.696;23.360;2023-01-29T13:50:55;95532.47;;;2.73;72.58
34742;BME280;20968;42.696;23.360;2023-01-29T13:53:31;95532.25;;;2.64;72.85
34742;BME280;20968;42.696;23.360;2023-01-29T13:58:58;95532.25;;;2.64;72.73
34742;BME280;20968;42.696;23.360;2023-01-29T14:04:22;95534.47;;;2.69;72.95
34742;BME280;20968;42.696;23.360;2023-01-29T14:06:56;95531.91;;;2.62;73.19
34742;BME280;20968;42.696;23.360;2023-01-29T14:12:04;95545.97;;;2.57;73.34
34742;BME280;20968;42.696;23.360;2023-01-29T14:17:13;95548.75;;;2.54;73.27
34742;BME280;20968;42.696;23.360;2023-01-29T14:19:47;95548.84;;;2.50;73.73
34742;BME280;20968;42.696;23.360;2023-01-29T14:22:25;95540.69;;;2.50;73.81
34742;BME280;20968;42.696;23.360;2023-01-29T14:24:54;95554.47;;;2.59;73.94
34742;BME280;20968;42.696;23.360;2023-01-29T14:27:23;95547.28;;;2.49;73.70
34742;BME280;20968;42.696;23.360;2023-01-29T14:29:58;95550.16;;;2.42;73.72
34742;BME280;20968;42.696;23.360;2023-01-29T14:32:25;95553.19;;;2.44;74.05
34742;BME280;20968;42.696;23.360;2023-01-29T14:34:57;95558.63;;;2.44;73.78
34742;BME280;20968;42.696;23.360;2023-01-29T14:37:37;95550.22;;;2.39;74.14
34742;BME280;20968;42.696;23.360;2023-01-29T14:42:42;95568.59;;;2.51;74.36
34742;BME280;20968;42.696;23.360;2023-01-29T14:45:30;95570.66;;;2.43;74.76
34742;BME280;20968;42.696;23.360;2023-01-29T14:48:01;95560.78;;;2.33;74.63
34742;BME280;20968;42.696;23.360;2023-01-29T14:55:56;95564.22;;;2.15;76.22
34742;BME280;20968;42.696;23.360;2023-01-29T14:58:29;95569.25;;;2.16;76.07
34742;BME280;20968;42.696;23.360;2023-01-29T15:00:58;95568.94;;;2.11;75.82
34742;BME280;20968;42.696;23.360;2023-01-29T15:03:48;95573.41;;;2.21;75.97
34742;BME280;20968;42.696;23.360;2023-01-29T15:06:43;95563.53;;;2.11;75.82
34742;BME280;20968;42.696;23.360;2023-01-29T15:09:17;95558.03;;;2.14;76.13
34742;BME280;20968;42.696;23.360;2023-01-29T15:12:02;95564.94;;;2.19;76.50
34742;BME280;20968;42.696;23.360;2023-01-29T15:14:40;95566.47;;;2.20;76.81
34742;BME280;20968;42.696;23.360;2023-01-29T15:19:41;95574.13;;;2.25;76.22
34742;BME280;20968;42.696;23.360;2023-01-29T15:22:28;95567.41;;;2.10;76.37
34742;BME280;20968;42.696;23.360;2023-01-29T15:25:05;95566.53;;;1.93;77.00
34742;BME280;20968;42.696;23.360;2023-01-29T15:27:32;95572.53;;;2.04;77.22
34742;BME280;20968;42.696;23.360;2023-01-29T15:30:00;95572.84;;;2.10;77.68
34742;BME280;20968;42.696;23.360;2023-01-29T15:32:32;95577.09;;;2.11;76.97
34742;BME280;20968;42.696;23.360;2023-01-29T15:34:59;95563.59;;;2.07;76.51
34742;BME280;20968;42.696;23.360;2023-01-29T15:37:35;95574.25;;;2.18;77.16
34742;BME280;20968;42.696;23.360;2023-01-29T15:40:01;95586.59;;;2.22;76.67